sensor_id;sensor_type;location;lat;lon;timestamp;P1;durP1;ratioP1;P2;durP2;ratioP2
72797;SDS011;61084;55.816;37.036;2023-02-11T00:02:02;12.50;;;4.60;;
72797;SDS011;61084;55.816;37.036;2023-02-11T00:04:30;13.25;;;4.20;;
72797;SDS011;61084;55.816;37.036;2023-02-11T00:06:56;15.88;;;4.07;;
72797;SDS011;61084;55.816;37.036;2023-02-11T00:09:22;12.68;;;4.47;;
72797;SDS011;61084;55.816;37.036;2023-02-11T00:11:48;12.88;;;4.20;;
72797;SDS011;61084;55.816;37.036;2023-02-11T00:14:14;14.65;;;4.18;;
72797;SDS011;61084;55.816;37.036;2023-02-11T00:16:40;9.10;;;3.45;;
72797;SDS011;61084;55.816;37.036;2023-02-11T00:19:05;11.45;;;3.63;;
72797;SDS011;61084;55.816;37.036;2023-02-11T00:21:32;11.85;;;3.60;;
72797;SDS011;61084;55.816;37.036;2023-02-11T00:23:58;17.00;;;4.40;;
72797;SDS011;61084;55.816;37.036;2023-02-11T00:26:28;13.25;;;4.25;;
72797;SDS011;61084;55.816;37.036;2023-02-11T00:28:56;9.70;;;3.72;;
72797;SDS011;61084;55.816;37.036;2023-02-11T00:31:22;12.38;;;3.88;;
72797;SDS011;61084;55.816;37.036;2023-02-11T00:33:48;9.25;;;3.47;;
72797;SDS011;61084;55.816;37.036;2023-02-11T00:36:15;10.40;;;3.88;;
72797;SDS011;61084;55.816;37.036;2023-02-11T00:38:46;16.30;;;4.30;;
72797;SDS011;61084;55.816;37.036;2023-02-11T00:41:13;11.55;;;4.22;;
72797;SDS011;61084;55.816;37.036;2023-02-11T00:43:58;10.82;;;3.30;;
72797;SDS011;61084;55.816;37.036;2023-02-11T00:46:24;7.43;;;3.22;;
72797;SDS011;61084;55.816;37.036;2023-02-11T00:48:51;11.25;;;3.10;;
72797;SDS011;61084;55.816;37.036;2023-02-11T00:51:20;10.65;;;3.85;;
72797;SDS011;61084;55.816;37.036;2023-02-11T00:53:45;11.43;;;3.40;;
72797;SDS011;61084;55.816;37.036;2023-02-11T00:56:11;12.38;;;3.63;;
72797;SDS011;61084;55.816;37.036;2023-02-11T00:58:37;10.60;;;3.25;;
72797;SDS011;61084;55.816;37.036;2023-02-11T01:01:03;8.52;;;3.10;;
72797;SDS011;61084;55.816;37.036;2023-02-11T01:03:29;7.13;;;3.15;;
72797;SDS011;61084;55.816;37.036;2023-02-11T01:05:55;10.48;;;3.55;;
72797;SDS011;61084;55.816;37.036;2023-02-11T01:08:20;11.93;;;3.25;;
72797;SDS011;61084;55.816;37.036;2023-02-11T01:11:00;8.57;;;3.25;;
72797;SDS011;61084;55.816;37.036;2023-02-11T01:13:27;7.50;;;2.67;;
72797;SDS011;61084;55.816;37.036;2023-02-11T01:15:54;9.30;;;2.78;;
72797;SDS011;61084;55.816;37.036;2023-02-11T01:18:20;10.68;;;2.80;;
72797;SDS011;61084;55.816;37.036;2023-02-11T01:20:47;9.63;;;3.10;;
72797;SDS011;61084;55.816;37.036;2023-02-11T01:23:13;6.80;;;2.00;;
72797;SDS011;61084;55.816;37.036;2023-02-11T01:25:39;10.40;;;2.90;;
72797;SDS011;61084;55.816;37.036;2023-02-11T01:28:05;7.90;;;2.65;;
72797;SDS011;61084;55.816;37.036;2023-02-11T01:30:31;12.98;;;2.85;;
72797;SDS011;61084;55.816;37.036;2023-02-11T01:32:56;11.30;;;2.55;;
72797;SDS011;61084;55.816;37.036;2023-02-11T01:35:22;5.53;;;2.20;;
72797;SDS011;61084;55.816;37.036;2023-02-11T01:37:48;6.68;;;2.47;;
72797;SDS011;61084;55.816;37.036;2023-02-11T01:40:15;6.60;;;2.55;;
72797;SDS011;61084;55.816;37.036;2023-02-11T01:42:43;8.25;;;2.50;;
72797;SDS011;61084;55.816;37.036;2023-02-11T01:48:21;7.25;;;1.80;;
72797;SDS011;61084;55.816;37.036;2023-02-11T01:50:53;7.18;;;2.08;;
72797;SDS011;61084;55.816;37.036;2023-02-11T01:53:23;4.22;;;2.10;;
72797;SDS011;61084;55.816;37.036;2023-02-11T01:56:08;8.27;;;1.85;;
72797;SDS011;61084;55.816;37.036;2023-02-11T01:58:54;7.07;;;2.20;;
72797;SDS011;61084;55.816;37.036;2023-02-11T02:01:25;8.18;;;1.88;;
72797;SDS011;61084;55.816;37.036;2023-02-11T02:03:53;8.07;;;2.38;;
72797;SDS011;61084;55.816;37.036;2023-02-11T02:06:25;4.85;;;2.20;;
72797;SDS011;61084;55.816;37.036;2023-02-11T02:09:02;4.20;;;2.25;;
72797;SDS011;61084;55.816;37.036;2023-02-11T02:11:40;9.30;;;2.10;;
72797;SDS011;61084;55.816;37.036;2023-02-11T02:14:06;5.07;;;1.98;;
72797;SDS011;61084;55.816;37.036;2023-02-11T02:16:33;5.03;;;1.88;;
72797;SDS011;61084;55.816;37.036;2023-02-11T02:33:55;6.18;;;1.70;;
72797;SDS011;61084;55.816;37.036;2023-02-11T02:36:32;5.35;;;2.00;;
72797;SDS011;61084;55.816;37.036;2023-02-11T02:39:06;8.55;;;2.42;;
72797;SDS011;61084;55.816;37.036;2023-02-11T02:41:37;8.15;;;1.92;;
72797;SDS011;61084;55.816;37.036;2023-02-11T02:44:05;5.22;;;1.90;;
72797;SDS011;61084;55.816;37.036;2023-02-11T02:46:33;7.10;;;2.47;;
72797;SDS011;61084;55.816;37.036;2023-02-11T02:48:59;6.97;;;1.98;;
72797;SDS011;61084;55.816;37.036;2023-02-11T02:54:27;7.43;;;1.88;;
72797;SDS011;61084;55.816;37.036;2023-02-11T03:05:03;9.07;;;1.83;;
72797;SDS011;61084;55.816;37.036;2023-02-11T03:08:07;14.05;;;2.10;;
72797;SDS011;61084;55.816;37.036;2023-02-11T03:10:44;7.65;;;2.03;;
72797;SDS011;61084;55.816;37.036;2023-02-11T03:13:13;6.10;;;1.80;;
72797;SDS011;61084;55.816;37.036;2023-02-11T03:15:43;9.70;;;2.42;;
72797;SDS011;61084;55.816;37.036;2023-02-11T03:18:13;8.40;;;2.00;;
72797;SDS011;61084;55.816;37.036;2023-02-11T03:20:42;5.97;;;1.98;;
72797;SDS011;61084;55.816;37.036;2023-02-11T03:23:25;7.55;;;2.00;;
72797;SDS011;61084;55.816;37.036;2023-02-11T03:25:55;5.18;;;1.52;;
72797;SDS011;61084;55.816;37.036;2023-02-11T03:28:31;8.63;;;2.25;;
72797;SDS011;61084;55.816;37.036;2023-02-11T03:36:41;7.38;;;1.77;;
72797;SDS011;61084;55.816;37.036;2023-02-11T03:39:18;7.55;;;1.80;;
72797;SDS011;61084;55.816;37.036;2023-02-11T03:41:48;4.75;;;1.55;;
72797;SDS011;61084;55.816;37.036;2023-02-11T03:44:15;3.80;;;1.63;;
72797;SDS011;61084;55.816;37.036;2023-02-11T03:46:42;5.07;;;1.70;;
72797;SDS011;61084;55.816;37.036;2023-02-11T03:49:12;3.47;;;1.35;;
72797;SDS011;61084;55.816;37.036;2023-02-11T03:51:42;5.88;;;1.48;;
72797;SDS011;61084;55.816;37.036;2023-02-11T03:54:09;7.97;;;1.80;;
72797;SDS011;61084;55.816;37.036;2023-02-11T03:56:52;5.20;;;1.60;;
72797;SDS011;61084;55.816;37.036;2023-02-11T03:59:20;5.60;;;1.30;;
72797;SDS011;61084;55.816;37.036;2023-02-11T04:01:46;5.88;;;1.30;;
72797;SDS011;61084;55.816;37.036;2023-02-11T04:04:12;5.07;;;1.50;;
72797;SDS011;61084;55.816;37.036;2023-02-11T04:06:38;2.55;;;1.20;;
72797;SDS011;61084;55.816;37.036;2023-02-11T04:09:04;6.40;;;1.40;;
72797;SDS011;61084;55.816;37.036;2023-02-11T04:11:30;6.75;;;1.58;;
72797;SDS011;61084;55.816;37.036;2023-02-11T04:13:56;6.35;;;1.20;;
72797;SDS011;61084;55.816;37.036;2023-02-11T04:16:21;9.45;;;1.35;;
72797;SDS011;61084;55.816;37.036;2023-02-11T04:18:47;3.95;;;1.35;;
72797;SDS011;61084;55.816;37.036;2023-02-11T04:21:13;7.88;;;1.80;;
72797;SDS011;61084;55.816;37.036;2023-02-11T04:23:39;2.15;;;0.88;;
72797;SDS011;61084;55.816;37.036;2023-02-11T04:26:05;4.75;;;1.40;;
72797;SDS011;61084;55.816;37.036;2023-02-11T04:28:30;7.68;;;1.25;;
72797;SDS011;61084;55.816;37.036;2023-02-11T04:30:56;3.13;;;1.50;;
72797;SDS011;61084;55.816;37.036;2023-02-11T04:33:22;4.57;;;1.73;;
72797;SDS011;61084;55.816;37.036;2023-02-11T04:35:49;7.25;;;1.23;;
72797;SDS011;61084;55.816;37.036;2023-02-11T04:38:15;5.75;;;1.08;;
72797;SDS011;61084;55.816;37.036;2023-02-11T04:40:41;4.30;;;1.38;;
72797;SDS011;61084;55.816;37.036;2023-02-11T04:43:07;8.57;;;1.58;;
72797;SDS011;61084;55.816;37.036;2023-02-11T04:45:33;4.00;;;1.60;;
72797;SDS011;61084;55.816;37.036;2023-02-11T04:48:00;5.25;;;1.48;;
72797;SDS011;61084;55.816;37.036;2023-02-11T04:50:27;6.07;;;1.85;;
72797;SDS011;61084;55.816;37.036;2023-02-11T04:52:53;4.90;;;1.50;;
72797;SDS011;61084;55.816;37.036;2023-02-11T04:55:19;7.38;;;1.80;;
72797;SDS011;61084;55.816;37.036;2023-02-11T04:57:45;6.28;;;1.80;;
72797;SDS011;61084;55.816;37.036;2023-02-11T05:00:11;4.47;;;1.50;;
72797;SDS011;61084;55.816;37.036;2023-02-11T05:02:37;4.97;;;1.27;;
72797;SDS011;61084;55.816;37.036;2023-02-11T05:05:03;8.00;;;1.52;;
72797;SDS011;61084;55.816;37.036;2023-02-11T05:07:30;3.67;;;1.50;;
72797;SDS011;61084;55.816;37.036;2023-02-11T05:09:56;8.38;;;1.83;;
72797;SDS011;61084;55.816;37.036;2023-02-11T05:12:21;7.78;;;1.90;;
72797;SDS011;61084;55.816;37.036;2023-02-11T05:14:47;5.43;;;1.90;;
72797;SDS011;61084;55.816;37.036;2023-02-11T05:17:13;5.13;;;1.45;;
72797;SDS011;61084;55.816;37.036;2023-02-11T05:19:40;4.70;;;1.50;;
72797;SDS011;61084;55.816;37.036;2023-02-11T05:22:06;6.45;;;1.48;;
72797;SDS011;61084;55.816;37.036;2023-02-11T05:24:32;4.60;;;1.55;;
72797;SDS011;61084;55.816;37.036;2023-02-11T05:26:59;5.15;;;1.45;;
72797;SDS011;61084;55.816;37.036;2023-02-11T05:29:25;5.05;;;1.70;;
72797;SDS011;61084;55.816;37.036;2023-02-11T05:31:51;9.63;;;2.25;;
72797;SDS011;61084;55.816;37.036;2023-02-11T05:34:17;9.93;;;1.90;;
72797;SDS011;61084;55.816;37.036;2023-02-11T05:36:43;7.78;;;1.60;;
72797;SDS011;61084;55.816;37.036;2023-02-11T05:39:09;6.13;;;1.73;;
72797;SDS011;61084;55.816;37.036;2023-02-11T05:41:35;5.72;;;1.80;;
72797;SDS011;61084;55.816;37.036;2023-02-11T05:44:02;7.90;;;2.17;;
72797;SDS011;61084;55.816;37.036;2023-02-11T05:46:28;5.40;;;1.52;;
72797;SDS011;61084;55.816;37.036;2023-02-11T05:48:54;10.02;;;1.42;;
72797;SDS011;61084;55.816;37.036;2023-02-11T05:51:21;8.18;;;1.77;;
72797;SDS011;61084;55.816;37.036;2023-02-11T05:53:47;5.35;;;1.70;;
72797;SDS011;61084;55.816;37.036;2023-02-11T05:56:13;3.63;;;1.65;;
72797;SDS011;61084;55.816;37.036;2023-02-11T05:58:39;4.97;;;1.60;;
72797;SDS011;61084;55.816;37.036;2023-02-11T06:01:05;7.55;;;1.48;;
72797;SDS011;61084;55.816;37.036;2023-02-11T06:03:31;6.90;;;1.48;;
72797;SDS011;61084;55.816;37.036;2023-02-11T06:05:56;8.32;;;1.42;;
72797;SDS011;61084;55.816;37.036;2023-02-11T06:08:22;7.78;;;1.45;;
72797;SDS011;61084;55.816;37.036;2023-02-11T06:10:48;6.68;;;1.70;;
72797;SDS011;61084;55.816;37.036;2023-02-11T06:13:14;4.18;;;1.48;;
72797;SDS011;61084;55.816;37.036;2023-02-11T06:15:39;4.20;;;1.65;;
72797;SDS011;61084;55.816;37.036;2023-02-11T06:18:05;6.57;;;1.52;;
72797;SDS011;61084;55.816;37.036;2023-02-11T06:20:32;5.15;;;1.35;;
72797;SDS011;61084;55.816;37.036;2023-02-11T06:22:58;7.80;;;1.50;;
72797;SDS011;61084;55.816;37.036;2023-02-11T06:25:24;6.18;;;1.50;;
72797;SDS011;61084;55.816;37.036;2023-02-11T06:27:50;4.57;;;1.40;;
72797;SDS011;61084;55.816;37.036;2023-02-11T06:30:16;5.20;;;1.67;;
72797;SDS011;61084;55.816;37.036;2023-02-11T06:32:41;7.22;;;1.70;;
72797;SDS011;61084;55.816;37.036;2023-02-11T06:35:07;4.85;;;1.40;;
72797;SDS011;61084;55.816;37.036;2023-02-11T06:37:33;3.28;;;1.60;;
72797;SDS011;61084;55.816;37.036;2023-02-11T06:39:59;5.88;;;1.55;;
72797;SDS011;61084;55.816;37.036;2023-02-11T06:42:25;5.03;;;2.03;;
72797;SDS011;61084;55.816;37.036;2023-02-11T06:44:51;5.15;;;1.90;;
72797;SDS011;61084;55.816;37.036;2023-02-11T06:47:16;7.63;;;1.85;;
72797;SDS011;61084;55.816;37.036;2023-02-11T06:49:42;4.60;;;1.42;;
72797;SDS011;61084;55.816;37.036;2023-02-11T06:52:08;10.90;;;1.67;;
72797;SDS011;61084;55.816;37.036;2023-02-11T06:54:34;5.65;;;1.88;;
72797;SDS011;61084;55.816;37.036;2023-02-11T06:57:00;6.32;;;1.60;;
72797;SDS011;61084;55.816;37.036;2023-02-11T06:59:26;6.55;;;1.85;;
72797;SDS011;61084;55.816;37.036;2023-02-11T07:01:52;5.38;;;1.75;;
72797;SDS011;61084;55.816;37.036;2023-02-11T07:04:17;6.97;;;1.80;;
72797;SDS011;61084;55.816;37.036;2023-02-11T07:06:43;7.05;;;1.70;;
72797;SDS011;61084;55.816;37.036;2023-02-11T07:09:10;4.45;;;1.13;;
72797;SDS011;61084;55.816;37.036;2023-02-11T07:11:35;7.57;;;1.67;;
72797;SDS011;61084;55.816;37.036;2023-02-11T07:14:03;6.80;;;1.77;;
72797;SDS011;61084;55.816;37.036;2023-02-11T07:16:30;4.97;;;1.40;;
72797;SDS011;61084;55.816;37.036;2023-02-11T07:18:56;3.88;;;1.85;;
72797;SDS011;61084;55.816;37.036;2023-02-11T07:21:22;12.75;;;1.95;;
72797;SDS011;61084;55.816;37.036;2023-02-11T07:23:49;6.63;;;1.90;;
72797;SDS011;61084;55.816;37.036;2023-02-11T07:26:16;6.25;;;1.73;;
72797;SDS011;61084;55.816;37.036;2023-02-11T07:28:45;3.55;;;1.45;;
72797;SDS011;61084;55.816;37.036;2023-02-11T07:31:13;6.38;;;1.65;;
72797;SDS011;61084;55.816;37.036;2023-02-11T07:33:41;7.20;;;2.20;;
72797;SDS011;61084;55.816;37.036;2023-02-11T07:36:07;6.85;;;1.98;;
72797;SDS011;61084;55.816;37.036;2023-02-11T07:38:35;6.47;;;2.25;;
72797;SDS011;61084;55.816;37.036;2023-02-11T07:41:02;5.45;;;2.33;;
72797;SDS011;61084;55.816;37.036;2023-02-11T07:43:30;11.77;;;2.90;;
72797;SDS011;61084;55.816;37.036;2023-02-11T07:45:56;8.50;;;2.80;;
72797;SDS011;61084;55.816;37.036;2023-02-11T07:48:22;10.57;;;3.13;;
72797;SDS011;61084;55.816;37.036;2023-02-11T07:50:48;11.73;;;3.17;;
72797;SDS011;61084;55.816;37.036;2023-02-11T07:53:14;9.07;;;3.08;;
72797;SDS011;61084;55.816;37.036;2023-02-11T07:55:41;13.15;;;3.50;;
72797;SDS011;61084;55.816;37.036;2023-02-11T07:58:08;9.32;;;3.17;;
72797;SDS011;61084;55.816;37.036;2023-02-11T08:00:34;5.90;;;2.40;;
72797;SDS011;61084;55.816;37.036;2023-02-11T08:03:00;14.70;;;3.50;;
72797;SDS011;61084;55.816;37.036;2023-02-11T08:05:25;7.97;;;3.60;;
72797;SDS011;61084;55.816;37.036;2023-02-11T08:07:51;13.48;;;3.72;;
72797;SDS011;61084;55.816;37.036;2023-02-11T08:10:18;12.43;;;3.53;;
72797;SDS011;61084;55.816;37.036;2023-02-11T08:12:45;10.07;;;3.13;;
72797;SDS011;61084;55.816;37.036;2023-02-11T08:15:11;12.52;;;3.47;;
72797;SDS011;61084;55.816;37.036;2023-02-11T08:17:36;11.73;;;3.22;;
72797;SDS011;61084;55.816;37.036;2023-02-11T08:20:03;11.85;;;3.28;;
72797;SDS011;61084;55.816;37.036;2023-02-11T08:22:30;8.07;;;3.00;;
72797;SDS011;61084;55.816;37.036;2023-02-11T08:24:57;7.97;;;3.33;;
72797;SDS011;61084;55.816;37.036;2023-02-11T08:27:23;8.73;;;2.42;;
72797;SDS011;61084;55.816;37.036;2023-02-11T08:29:51;8.57;;;3.28;;
72797;SDS011;61084;55.816;37.036;2023-02-11T08:32:20;11.95;;;3.10;;
72797;SDS011;61084;55.816;37.036;2023-02-11T08:34:52;9.77;;;2.92;;
72797;SDS011;61084;55.816;37.036;2023-02-11T08:37:18;7.40;;;2.80;;
72797;SDS011;61084;55.816;37.036;2023-02-11T08:39:45;7.25;;;2.90;;
72797;SDS011;61084;55.816;37.036;2023-02-11T08:42:11;6.13;;;2.58;;
72797;SDS011;61084;55.816;37.036;2023-02-11T08:44:39;7.78;;;3.10;;
72797;SDS011;61084;55.816;37.036;2023-02-11T08:47:06;12.25;;;3.33;;
72797;SDS011;61084;55.816;37.036;2023-02-11T08:49:32;12.25;;;3.50;;
72797;SDS011;61084;55.816;37.036;2023-02-11T08:52:01;6.53;;;2.50;;
72797;SDS011;61084;55.816;37.036;2023-02-11T08:54:31;9.88;;;3.05;;
72797;SDS011;61084;55.816;37.036;2023-02-11T08:56:57;10.15;;;2.78;;
72797;SDS011;61084;55.816;37.036;2023-02-11T08:59:23;9.40;;;3.33;;
72797;SDS011;61084;55.816;37.036;2023-02-11T09:01:49;7.28;;;2.83;;
72797;SDS011;61084;55.816;37.036;2023-02-11T09:04:14;7.65;;;3.00;;
72797;SDS011;61084;55.816;37.036;2023-02-11T09:06:40;14.95;;;2.60;;
72797;SDS011;61084;55.816;37.036;2023-02-11T09:09:08;8.95;;;2.67;;
72797;SDS011;61084;55.816;37.036;2023-02-11T09:11:36;10.05;;;2.45;;
72797;SDS011;61084;55.816;37.036;2023-02-11T09:14:02;9.57;;;2.75;;
72797;SDS011;61084;55.816;37.036;2023-02-11T09:16:30;6.53;;;2.50;;
72797;SDS011;61084;55.816;37.036;2023-02-11T09:18:58;5.30;;;2.80;;
72797;SDS011;61084;55.816;37.036;2023-02-11T09:21:25;5.53;;;1.90;;
72797;SDS011;61084;55.816;37.036;2023-02-11T09:23:52;8.23;;;2.22;;
72797;SDS011;61084;55.816;37.036;2023-02-11T09:26:19;9.95;;;2.17;;
72797;SDS011;61084;55.816;37.036;2023-02-11T09:28:53;10.50;;;1.88;;
72797;SDS011;61084;55.816;37.036;2023-02-11T09:31:20;10.23;;;2.53;;
72797;SDS011;61084;55.816;37.036;2023-02-11T09:33:48;6.10;;;2.35;;
72797;SDS011;61084;55.816;37.036;2023-02-11T09:36:19;8.65;;;2.50;;
72797;SDS011;61084;55.816;37.036;2023-02-11T09:38:46;7.45;;;2.22;;
72797;SDS011;61084;55.816;37.036;2023-02-11T09:41:24;5.00;;;2.22;;
72797;SDS011;61084;55.816;37.036;2023-02-11T09:44:32;5.97;;;2.75;;
72797;SDS011;61084;55.816;37.036;2023-02-11T09:47:23;7.72;;;2.70;;
72797;SDS011;61084;55.816;37.036;2023-02-11T09:49:46;9.20;;;2.38;;
72797;SDS011;61084;55.816;37.036;2023-02-11T09:54:56;9.73;;;2.38;;
72797;SDS011;61084;55.816;37.036;2023-02-11T09:57:25;10.43;;;2.50;;
72797;SDS011;61084;55.816;37.036;2023-02-11T09:59:57;9.15;;;2.75;;
72797;SDS011;61084;55.816;37.036;2023-02-11T10:08:13;11.82;;;2.78;;
72797;SDS011;61084;55.816;37.036;2023-02-11T10:10:49;6.03;;;2.13;;
72797;SDS011;61084;55.816;37.036;2023-02-11T10:19:12;10.38;;;3.17;;
72797;SDS011;61084;55.816;37.036;2023-02-11T10:22:11;7.60;;;2.63;;
72797;SDS011;61084;55.816;37.036;2023-02-11T10:24:49;6.05;;;2.58;;
72797;SDS011;61084;55.816;37.036;2023-02-11T10:27:19;8.77;;;3.60;;
72797;SDS011;61084;55.816;37.036;2023-02-11T10:29:52;13.48;;;2.67;;
72797;SDS011;61084;55.816;37.036;2023-02-11T10:32:33;13.90;;;2.92;;
72797;SDS011;61084;55.816;37.036;2023-02-11T10:35:14;8.30;;;2.70;;
72797;SDS011;61084;55.816;37.036;2023-02-11T10:37:42;8.43;;;2.75;;
72797;SDS011;61084;55.816;37.036;2023-02-11T10:40:13;10.05;;;3.35;;
72797;SDS011;61084;55.816;37.036;2023-02-11T10:42:41;9.35;;;2.92;;
72797;SDS011;61084;55.816;37.036;2023-02-11T10:45:22;9.80;;;3.55;;
72797;SDS011;61084;55.816;37.036;2023-02-11T10:47:52;7.03;;;3.10;;
72797;SDS011;61084;55.816;37.036;2023-02-11T10:52:45;9.55;;;3.00;;
72797;SDS011;61084;55.816;37.036;2023-02-11T10:55:15;8.80;;;2.78;;
72797;SDS011;61084;55.816;37.036;2023-02-11T10:58:02;6.78;;;2.65;;
72797;SDS011;61084;55.816;37.036;2023-02-11T11:00:30;9.35;;;2.75;;
72797;SDS011;61084;55.816;37.036;2023-02-11T11:03:04;6.93;;;2.40;;
72797;SDS011;61084;55.816;37.036;2023-02-11T11:05:48;5.45;;;2.65;;
72797;SDS011;61084;55.816;37.036;2023-02-11T11:08:16;8.73;;;2.75;;
72797;SDS011;61084;55.816;37.036;2023-02-11T11:10:45;3.92;;;1.80;;
72797;SDS011;61084;55.816;37.036;2023-02-11T11:13:30;7.57;;;3.00;;
72797;SDS011;61084;55.816;37.036;2023-02-11T11:18:40;12.13;;;2.88;;
72797;SDS011;61084;55.816;37.036;2023-02-11T11:21:16;9.07;;;3.47;;
72797;SDS011;61084;55.816;37.036;2023-02-11T11:23:49;11.82;;;3.30;;
72797;SDS011;61084;55.816;37.036;2023-02-11T11:26:24;10.40;;;3.03;;
72797;SDS011;61084;55.816;37.036;2023-02-11T11:29:01;9.35;;;3.60;;
72797;SDS011;61084;55.816;37.036;2023-02-11T11:31:45;8.48;;;3.50;;
72797;SDS011;61084;55.816;37.036;2023-02-11T11:34:20;10.02;;;3.30;;
72797;SDS011;61084;55.816;37.036;2023-02-11T11:37:10;6.60;;;2.72;;
72797;SDS011;61084;55.816;37.036;2023-02-11T11:39:47;8.93;;;3.20;;
72797;SDS011;61084;55.816;37.036;2023-02-11T11:42:27;8.48;;;2.42;;
72797;SDS011;61084;55.816;37.036;2023-02-11T11:45:01;6.85;;;2.03;;
72797;SDS011;61084;55.816;37.036;2023-02-11T11:47:50;9.93;;;3.55;;
72797;SDS011;61084;55.816;37.036;2023-02-11T11:53:06;11.48;;;3.38;;
72797;SDS011;61084;55.816;37.036;2023-02-11T11:58:26;10.40;;;4.38;;
72797;SDS011;61084;55.816;37.036;2023-02-11T12:09:54;13.57;;;3.17;;
72797;SDS011;61084;55.816;37.036;2023-02-11T12:12:32;16.08;;;3.60;;
72797;SDS011;61084;55.816;37.036;2023-02-11T12:23:01;11.82;;;3.45;;
72797;SDS011;61084;55.816;37.036;2023-02-11T12:34:38;11.45;;;3.70;;
72797;SDS011;61084;55.816;37.036;2023-02-11T12:37:35;12.52;;;3.47;;
72797;SDS011;61084;55.816;37.036;2023-02-11T12:40:14;18.52;;;4.95;;
72797;SDS011;61084;55.816;37.036;2023-02-11T12:45:45;13.02;;;3.50;;
72797;SDS011;61084;55.816;37.036;2023-02-11T12:59:14;10.82;;;3.78;;
72797;SDS011;61084;55.816;37.036;2023-02-11T13:01:52;12.38;;;4.20;;
72797;SDS011;61084;55.816;37.036;2023-02-11T13:04:25;13.85;;;3.83;;
72797;SDS011;61084;55.816;37.036;2023-02-11T13:06:58;13.75;;;4.38;;
72797;SDS011;61084;55.816;37.036;2023-02-11T13:09:31;12.95;;;4.32;;
72797;SDS011;61084;55.816;37.036;2023-02-11T13:12:03;12.30;;;4.90;;
72797;SDS011;61084;55.816;37.036;2023-02-11T13:14:49;14.18;;;4.47;;
72797;SDS011;61084;55.816;37.036;2023-02-11T13:17:23;14.35;;;4.93;;
72797;SDS011;61084;55.816;37.036;2023-02-11T13:19:58;13.35;;;4.03;;
72797;SDS011;61084;55.816;37.036;2023-02-11T13:22:45;13.90;;;4.70;;
72797;SDS011;61084;55.816;37.036;2023-02-11T13:25:24;14.50;;;4.13;;
72797;SDS011;61084;55.816;37.036;2023-02-11T13:27:59;17.98;;;5.00;;
72797;SDS011;61084;55.816;37.036;2023-02-11T13:30:33;14.73;;;5.72;;
72797;SDS011;61084;55.816;37.036;2023-02-11T13:38:24;17.50;;;5.25;;
72797;SDS011;61084;55.816;37.036;2023-02-11T13:41:36;15.70;;;6.15;;
72797;SDS011;61084;55.816;37.036;2023-02-11T13:43:55;21.10;;;5.57;;
72797;SDS011;61084;55.816;37.036;2023-02-11T13:46:23;17.90;;;5.85;;
72797;SDS011;61084;55.816;37.036;2023-02-11T13:48:52;19.55;;;5.43;;
72797;SDS011;61084;55.816;37.036;2023-02-11T13:51:33;17.67;;;5.85;;
72797;SDS011;61084;55.816;37.036;2023-02-11T13:54:01;22.77;;;5.45;;
72797;SDS011;61084;55.816;37.036;2023-02-11T13:58:56;16.83;;;5.43;;
72797;SDS011;61084;55.816;37.036;2023-02-11T14:01:40;20.98;;;6.72;;
72797;SDS011;61084;55.816;37.036;2023-02-11T14:05:24;18.75;;;6.00;;
72797;SDS011;61084;55.816;37.036;2023-02-11T14:10:58;21.60;;;6.80;;
72797;SDS011;61084;55.816;37.036;2023-02-11T14:14:00;13.05;;;5.50;;
72797;SDS011;61084;55.816;37.036;2023-02-11T14:16:22;18.90;;;6.28;;
72797;SDS011;61084;55.816;37.036;2023-02-11T14:23:52;14.73;;;5.10;;
72797;SDS011;61084;55.816;37.036;2023-02-11T14:29:15;25.98;;;6.97;;
72797;SDS011;61084;55.816;37.036;2023-02-11T14:34:36;18.85;;;6.35;;
72797;SDS011;61084;55.816;37.036;2023-02-11T14:42:18;14.80;;;5.80;;
72797;SDS011;61084;55.816;37.036;2023-02-11T14:44:49;20.30;;;5.25;;
72797;SDS011;61084;55.816;37.036;2023-02-11T14:47:19;16.58;;;5.38;;
72797;SDS011;61084;55.816;37.036;2023-02-11T14:49:50;20.95;;;6.30;;
72797;SDS011;61084;55.816;37.036;2023-02-11T14:52:24;17.40;;;5.78;;
72797;SDS011;61084;55.816;37.036;2023-02-11T14:57:32;20.23;;;5.80;;
72797;SDS011;61084;55.816;37.036;2023-02-11T14:59:59;11.40;;;4.50;;
72797;SDS011;61084;55.816;37.036;2023-02-11T15:02:36;16.60;;;4.72;;
72797;SDS011;61084;55.816;37.036;2023-02-11T15:05:19;17.60;;;5.32;;
72797;SDS011;61084;55.816;37.036;2023-02-11T15:07:51;14.27;;;5.50;;
72797;SDS011;61084;55.816;37.036;2023-02-11T15:10:29;15.63;;;5.13;;
72797;SDS011;61084;55.816;37.036;2023-02-11T15:12:56;13.27;;;4.88;;
72797;SDS011;61084;55.816;37.036;2023-02-11T15:15:23;15.40;;;5.45;;
72797;SDS011;61084;55.816;37.036;2023-02-11T15:17:51;14.38;;;4.95;;
72797;SDS011;61084;55.816;37.036;2023-02-11T15:20:18;15.48;;;5.35;;
72797;SDS011;61084;55.816;37.036;2023-02-11T15:23:03;15.95;;;5.18;;
72797;SDS011;61084;55.816;37.036;2023-02-11T15:25:32;14.48;;;4.80;;
72797;SDS011;61084;55.816;37.036;2023-02-11T15:30:27;14.18;;;4.90;;
72797;SDS011;61084;55.816;37.036;2023-02-11T15:32:57;14.80;;;5.47;;
72797;SDS011;61084;55.816;37.036;2023-02-11T15:35:25;15.57;;;5.45;;
72797;SDS011;61084;55.816;37.036;2023-02-11T15:37:57;13.48;;;5.00;;
72797;SDS011;61084;55.816;37.036;2023-02-11T15:40:25;10.68;;;4.97;;
72797;SDS011;61084;55.816;37.036;2023-02-11T15:42:55;17.55;;;5.18;;
72797;SDS011;61084;55.816;37.036;2023-02-11T15:45:32;18.27;;;5.20;;
72797;SDS011;61084;55.816;37.036;2023-02-11T15:48:16;18.70;;;5.05;;
72797;SDS011;61084;55.816;37.036;2023-02-11T15:50:50;13.35;;;4.80;;
72797;SDS011;61084;55.816;37.036;2023-02-11T15:53:35;15.55;;;4.97;;
72797;SDS011;61084;55.816;37.036;2023-02-11T15:56:12;14.65;;;4.85;;
72797;SDS011;61084;55.816;37.036;2023-02-11T15:58:41;12.18;;;5.03;;
72797;SDS011;61084;55.816;37.036;2023-02-11T16:01:09;14.02;;;5.05;;
72797;SDS011;61084;55.816;37.036;2023-02-11T16:03:36;14.73;;;5.10;;
72797;SDS011;61084;55.816;37.036;2023-02-11T16:06:15;15.75;;;5.85;;
72797;SDS011;61084;55.816;37.036;2023-02-11T16:08:54;16.33;;;5.35;;
72797;SDS011;61084;55.816;37.036;2023-02-11T16:11:30;13.32;;;4.47;;
72797;SDS011;61084;55.816;37.036;2023-02-11T16:13:58;11.77;;;5.13;;
72797;SDS011;61084;55.816;37.036;2023-02-11T16:16:31;14.57;;;5.22;;
72797;SDS011;61084;55.816;37.036;2023-02-11T16:18:59;16.23;;;5.07;;
72797;SDS011;61084;55.816;37.036;2023-02-11T16:21:31;15.43;;;5.05;;
72797;SDS011;61084;55.816;37.036;2023-02-11T16:24:04;13.65;;;5.20;;
72797;SDS011;61084;55.816;37.036;2023-02-11T16:26:33;18.13;;;4.90;;
72797;SDS011;61084;55.816;37.036;2023-02-11T16:29:17;16.98;;;4.95;;
72797;SDS011;61084;55.816;37.036;2023-02-11T16:31:47;14.10;;;4.90;;
72797;SDS011;61084;55.816;37.036;2023-02-11T16:36:42;13.40;;;5.32;;
72797;SDS011;61084;55.816;37.036;2023-02-11T16:39:09;14.48;;;4.68;;
72797;SDS011;61084;55.816;37.036;2023-02-11T16:41:35;16.98;;;5.00;;
72797;SDS011;61084;55.816;37.036;2023-02-11T16:44:01;14.85;;;4.90;;
72797;SDS011;61084;55.816;37.036;2023-02-11T16:46:27;15.35;;;5.15;;
72797;SDS011;61084;55.816;37.036;2023-02-11T16:48:53;15.30;;;4.65;;
72797;SDS011;61084;55.816;37.036;2023-02-11T16:51:20;13.98;;;5.28;;
72797;SDS011;61084;55.816;37.036;2023-02-11T16:53:46;13.82;;;4.90;;
72797;SDS011;61084;55.816;37.036;2023-02-11T16:56:15;14.93;;;5.68;;
72797;SDS011;61084;55.816;37.036;2023-02-11T16:58:43;16.88;;;4.65;;
72797;SDS011;61084;55.816;37.036;2023-02-11T17:01:10;15.10;;;4.53;;